sensor_id;sensor_type;location;lat;lon;timestamp;P1;durP1;ratioP1;P2;durP2;ratioP2
63284;SDS011;49409;55.708;37.522;2022-12-07T00:01:35;3.65;;;1.63;;
63284;SDS011;49409;55.708;37.522;2022-12-07T00:04:04;3.78;;;1.80;;
63284;SDS011;49409;55.708;37.522;2022-12-07T00:06:40;3.72;;;1.65;;
63284;SDS011;49409;55.708;37.522;2022-12-07T00:09:07;4.88;;;2.00;;
63284;SDS011;49409;55.708;37.522;2022-12-07T00:11:35;4.93;;;2.00;;
63284;SDS011;49409;55.708;37.522;2022-12-07T00:14:03;5.03;;;1.83;;
63284;SDS011;49409;55.708;37.522;2022-12-07T00:16:31;4.65;;;2.08;;
63284;SDS011;49409;55.708;37.522;2022-12-07T00:18:58;5.68;;;2.25;;
63284;SDS011;49409;55.708;37.522;2022-12-07T00:21:25;5.10;;;2.30;;
63284;SDS011;49409;55.708;37.522;2022-12-07T00:23:53;5.95;;;2.22;;
63284;SDS011;49409;55.708;37.522;2022-12-07T00:26:26;4.57;;;2.05;;
63284;SDS011;49409;55.708;37.522;2022-12-07T00:28:54;3.72;;;1.80;;
63284;SDS011;49409;55.708;37.522;2022-12-07T00:31:22;3.83;;;2.03;;
63284;SDS011;49409;55.708;37.522;2022-12-07T00:33:49;4.45;;;1.75;;
63284;SDS011;49409;55.708;37.522;2022-12-07T00:36:16;4.60;;;2.25;;
63284;SDS011;49409;55.708;37.522;2022-12-07T00:38:46;2.43;;;1.53;;
63284;SDS011;49409;55.708;37.522;2022-12-07T00:41:13;4.93;;;1.98;;
63284;SDS011;49409;55.708;37.522;2022-12-07T00:43:40;3.72;;;1.80;;
63284;SDS011;49409;55.708;37.522;2022-12-07T00:46:07;5.95;;;2.05;;
63284;SDS011;49409;55.708;37.522;2022-12-07T00:48:33;3.60;;;1.88;;
63284;SDS011;49409;55.708;37.522;2022-12-07T00:50:59;3.55;;;2.10;;
63284;SDS011;49409;55.708;37.522;2022-12-07T00:53:24;5.05;;;2.05;;
63284;SDS011;49409;55.708;37.522;2022-12-07T00:55:50;4.88;;;2.30;;
63284;SDS011;49409;55.708;37.522;2022-12-07T00:58:17;3.90;;;2.15;;
63284;SDS011;49409;55.708;37.522;2022-12-07T01:00:43;6.40;;;2.45;;
63284;SDS011;49409;55.708;37.522;2022-12-07T01:03:09;3.15;;;1.80;;
63284;SDS011;49409;55.708;37.522;2022-12-07T01:05:36;3.47;;;1.88;;
63284;SDS011;49409;55.708;37.522;2022-12-07T01:08:02;3.60;;;1.88;;
63284;SDS011;49409;55.708;37.522;2022-12-07T01:10:28;4.82;;;2.40;;
63284;SDS011;49409;55.708;37.522;2022-12-07T01:12:55;4.22;;;2.03;;
63284;SDS011;49409;55.708;37.522;2022-12-07T01:15:21;4.30;;;2.25;;
63284;SDS011;49409;55.708;37.522;2022-12-07T01:17:47;2.90;;;1.80;;
63284;SDS011;49409;55.708;37.522;2022-12-07T01:20:12;5.32;;;2.17;;
63284;SDS011;49409;55.708;37.522;2022-12-07T01:22:39;3.20;;;1.83;;
63284;SDS011;49409;55.708;37.522;2022-12-07T01:25:06;5.05;;;2.78;;
63284;SDS011;49409;55.708;37.522;2022-12-07T01:27:33;4.68;;;1.92;;
63284;SDS011;49409;55.708;37.522;2022-12-07T01:29:59;6.13;;;2.78;;
63284;SDS011;49409;55.708;37.522;2022-12-07T01:32:25;2.85;;;1.65;;
63284;SDS011;49409;55.708;37.522;2022-12-07T01:34:51;5.28;;;2.40;;
63284;SDS011;49409;55.708;37.522;2022-12-07T01:37:16;5.85;;;2.60;;
63284;SDS011;49409;55.708;37.522;2022-12-07T01:39:42;5.13;;;2.72;;
63284;SDS011;49409;55.708;37.522;2022-12-07T01:42:10;6.00;;;2.05;;
63284;SDS011;49409;55.708;37.522;2022-12-07T01:47:40;4.68;;;2.55;;
63284;SDS011;49409;55.708;37.522;2022-12-07T01:50:06;4.13;;;1.77;;
63284;SDS011;49409;55.708;37.522;2022-12-07T01:52:33;4.53;;;2.00;;
63284;SDS011;49409;55.708;37.522;2022-12-07T01:55:04;4.38;;;2.20;;
63284;SDS011;49409;55.708;37.522;2022-12-07T01:57:34;5.93;;;2.45;;
63284;SDS011;49409;55.708;37.522;2022-12-07T02:00:02;4.85;;;2.10;;
63284;SDS011;49409;55.708;37.522;2022-12-07T02:02:36;3.65;;;1.85;;
63284;SDS011;49409;55.708;37.522;2022-12-07T02:05:06;5.18;;;2.47;;
63284;SDS011;49409;55.708;37.522;2022-12-07T02:07:32;5.07;;;1.70;;
63284;SDS011;49409;55.708;37.522;2022-12-07T02:10:14;4.75;;;2.35;;
63284;SDS011;49409;55.708;37.522;2022-12-07T02:12:44;3.22;;;1.60;;
63284;SDS011;49409;55.708;37.522;2022-12-07T02:15:14;6.82;;;2.38;;
63284;SDS011;49409;55.708;37.522;2022-12-07T02:17:47;4.15;;;2.10;;
63284;SDS011;49409;55.708;37.522;2022-12-07T02:20:29;5.47;;;2.80;;
63284;SDS011;49409;55.708;37.522;2022-12-07T02:29:07;4.50;;;2.20;;
63284;SDS011;49409;55.708;37.522;2022-12-07T02:31:35;4.45;;;2.33;;
63284;SDS011;49409;55.708;37.522;2022-12-07T02:34:23;3.70;;;1.98;;
63284;SDS011;49409;55.708;37.522;2022-12-07T02:36:57;5.05;;;2.00;;
63284;SDS011;49409;55.708;37.522;2022-12-07T02:39:31;5.07;;;1.92;;
63284;SDS011;49409;55.708;37.522;2022-12-07T02:42:19;3.20;;;1.73;;
63284;SDS011;49409;55.708;37.522;2022-12-07T02:44:55;2.53;;;1.65;;
63284;SDS011;49409;55.708;37.522;2022-12-07T02:47:22;5.25;;;2.20;;
63284;SDS011;49409;55.708;37.522;2022-12-07T02:49:49;4.07;;;1.83;;
63284;SDS011;49409;55.708;37.522;2022-12-07T02:52:16;5.35;;;2.30;;
63284;SDS011;49409;55.708;37.522;2022-12-07T02:54:41;4.50;;;1.65;;
63284;SDS011;49409;55.708;37.522;2022-12-07T02:57:33;6.07;;;2.60;;
63284;SDS011;49409;55.708;37.522;2022-12-07T03:00:19;5.47;;;2.50;;
63284;SDS011;49409;55.708;37.522;2022-12-07T03:11:07;2.20;;;1.42;;
63284;SDS011;49409;55.708;37.522;2022-12-07T03:16:40;3.97;;;2.10;;
63284;SDS011;49409;55.708;37.522;2022-12-07T03:19:18;6.90;;;2.00;;
63284;SDS011;49409;55.708;37.522;2022-12-07T03:21:47;4.20;;;2.13;;
63284;SDS011;49409;55.708;37.522;2022-12-07T03:24:20;5.30;;;2.90;;
63284;SDS011;49409;55.708;37.522;2022-12-07T03:26:52;4.60;;;1.85;;
63284;SDS011;49409;55.708;37.522;2022-12-07T03:29:42;4.80;;;2.10;;
63284;SDS011;49409;55.708;37.522;2022-12-07T03:32:14;5.00;;;2.30;;
63284;SDS011;49409;55.708;37.522;2022-12-07T03:34:56;3.75;;;2.35;;
63284;SDS011;49409;55.708;37.522;2022-12-07T03:42:53;4.38;;;2.75;;
63284;SDS011;49409;55.708;37.522;2022-12-07T03:45:21;2.97;;;2.25;;
63284;SDS011;49409;55.708;37.522;2022-12-07T03:48:02;3.53;;;1.92;;
63284;SDS011;49409;55.708;37.522;2022-12-07T03:50:37;4.30;;;2.50;;
63284;SDS011;49409;55.708;37.522;2022-12-07T03:53:15;3.60;;;1.83;;
63284;SDS011;49409;55.708;37.522;2022-12-07T03:55:45;2.47;;;1.50;;
63284;SDS011;49409;55.708;37.522;2022-12-07T03:58:16;5.20;;;1.48;;
63284;SDS011;49409;55.708;37.522;2022-12-07T04:00:44;2.38;;;1.60;;
63284;SDS011;49409;55.708;37.522;2022-12-07T04:03:10;2.85;;;1.98;;
63284;SDS011;49409;55.708;37.522;2022-12-07T04:05:36;2.85;;;1.58;;
63284;SDS011;49409;55.708;37.522;2022-12-07T04:08:03;6.57;;;2.42;;
63284;SDS011;49409;55.708;37.522;2022-12-07T04:10:28;6.18;;;2.15;;
63284;SDS011;49409;55.708;37.522;2022-12-07T04:12:54;4.43;;;2.30;;
63284;SDS011;49409;55.708;37.522;2022-12-07T04:15:20;7.78;;;2.40;;
63284;SDS011;49409;55.708;37.522;2022-12-07T04:17:46;4.18;;;2.28;;
63284;SDS011;49409;55.708;37.522;2022-12-07T04:20:11;5.55;;;2.22;;
63284;SDS011;49409;55.708;37.522;2022-12-07T04:22:37;5.53;;;2.88;;
63284;SDS011;49409;55.708;37.522;2022-12-07T04:25:03;2.35;;;1.90;;
63284;SDS011;49409;55.708;37.522;2022-12-07T04:27:29;4.90;;;2.13;;
63284;SDS011;49409;55.708;37.522;2022-12-07T04:29:54;6.22;;;2.67;;
63284;SDS011;49409;55.708;37.522;2022-12-07T04:32:20;7.25;;;2.90;;
63284;SDS011;49409;55.708;37.522;2022-12-07T04:34:46;3.85;;;1.75;;
63284;SDS011;49409;55.708;37.522;2022-12-07T04:37:12;3.60;;;2.10;;
63284;SDS011;49409;55.708;37.522;2022-12-07T04:39:37;4.57;;;2.30;;
63284;SDS011;49409;55.708;37.522;2022-12-07T04:42:03;4.47;;;2.22;;
63284;SDS011;49409;55.708;37.522;2022-12-07T04:44:29;3.45;;;1.75;;
63284;SDS011;49409;55.708;37.522;2022-12-07T04:46:55;4.20;;;2.35;;
63284;SDS011;49409;55.708;37.522;2022-12-07T04:49:22;4.00;;;1.70;;
63284;SDS011;49409;55.708;37.522;2022-12-07T04:51:49;3.97;;;1.92;;
63284;SDS011;49409;55.708;37.522;2022-12-07T04:54:14;3.75;;;2.28;;
63284;SDS011;49409;55.708;37.522;2022-12-07T04:56:41;5.97;;;2.38;;
63284;SDS011;49409;55.708;37.522;2022-12-07T04:59:07;3.92;;;1.95;;
63284;SDS011;49409;55.708;37.522;2022-12-07T05:01:33;5.50;;;2.75;;
63284;SDS011;49409;55.708;37.522;2022-12-07T05:03:59;4.28;;;2.53;;
63284;SDS011;49409;55.708;37.522;2022-12-07T05:06:25;4.70;;;2.33;;
63284;SDS011;49409;55.708;37.522;2022-12-07T05:08:51;4.90;;;2.72;;
63284;SDS011;49409;55.708;37.522;2022-12-07T05:11:16;5.93;;;2.05;;
63284;SDS011;49409;55.708;37.522;2022-12-07T05:14:01;5.25;;;2.55;;
63284;SDS011;49409;55.708;37.522;2022-12-07T05:16:28;6.53;;;2.70;;
63284;SDS011;49409;55.708;37.522;2022-12-07T05:18:54;4.63;;;2.10;;
63284;SDS011;49409;55.708;37.522;2022-12-07T05:21:20;4.13;;;2.28;;
63284;SDS011;49409;55.708;37.522;2022-12-07T05:23:45;4.50;;;2.60;;
63284;SDS011;49409;55.708;37.522;2022-12-07T05:26:11;5.68;;;2.80;;
63284;SDS011;49409;55.708;37.522;2022-12-07T05:28:36;4.57;;;2.63;;
63284;SDS011;49409;55.708;37.522;2022-12-07T05:31:02;7.28;;;3.00;;
63284;SDS011;49409;55.708;37.522;2022-12-07T05:33:28;4.90;;;2.20;;
63284;SDS011;49409;55.708;37.522;2022-12-07T05:35:53;4.60;;;3.00;;
63284;SDS011;49409;55.708;37.522;2022-12-07T05:38:19;5.38;;;2.70;;
63284;SDS011;49409;55.708;37.522;2022-12-07T05:40:44;6.40;;;3.28;;
63284;SDS011;49409;55.708;37.522;2022-12-07T05:43:10;3.47;;;2.45;;
63284;SDS011;49409;55.708;37.522;2022-12-07T05:45:35;5.88;;;2.33;;
63284;SDS011;49409;55.708;37.522;2022-12-07T05:48:01;5.47;;;2.22;;
63284;SDS011;49409;55.708;37.522;2022-12-07T05:50:26;4.72;;;2.92;;
63284;SDS011;49409;55.708;37.522;2022-12-07T05:52:52;3.60;;;1.95;;
63284;SDS011;49409;55.708;37.522;2022-12-07T05:55:18;5.88;;;3.20;;
63284;SDS011;49409;55.708;37.522;2022-12-07T05:57:44;5.15;;;1.98;;
63284;SDS011;49409;55.708;37.522;2022-12-07T06:00:29;3.78;;;2.58;;
63284;SDS011;49409;55.708;37.522;2022-12-07T06:02:55;2.10;;;1.77;;
63284;SDS011;49409;55.708;37.522;2022-12-07T06:05:20;4.63;;;2.40;;
63284;SDS011;49409;55.708;37.522;2022-12-07T06:07:46;5.38;;;2.70;;
63284;SDS011;49409;55.708;37.522;2022-12-07T06:10:11;5.45;;;2.95;;
63284;SDS011;49409;55.708;37.522;2022-12-07T06:12:37;6.32;;;2.78;;
63284;SDS011;49409;55.708;37.522;2022-12-07T06:15:04;7.68;;;3.22;;
63284;SDS011;49409;55.708;37.522;2022-12-07T06:17:32;8.40;;;2.75;;
63284;SDS011;49409;55.708;37.522;2022-12-07T06:19:57;3.22;;;2.22;;
63284;SDS011;49409;55.708;37.522;2022-12-07T06:22:23;8.73;;;3.85;;
63284;SDS011;49409;55.708;37.522;2022-12-07T06:24:48;4.95;;;2.80;;
63284;SDS011;49409;55.708;37.522;2022-12-07T06:27:14;2.58;;;1.85;;
63284;SDS011;49409;55.708;37.522;2022-12-07T06:29:39;6.85;;;2.90;;
63284;SDS011;49409;55.708;37.522;2022-12-07T06:32:05;3.30;;;2.25;;
63284;SDS011;49409;55.708;37.522;2022-12-07T06:34:30;5.47;;;3.00;;
63284;SDS011;49409;55.708;37.522;2022-12-07T06:36:56;4.68;;;2.67;;
63284;SDS011;49409;55.708;37.522;2022-12-07T06:39:23;4.93;;;3.20;;
63284;SDS011;49409;55.708;37.522;2022-12-07T06:41:50;6.28;;;3.03;;
63284;SDS011;49409;55.708;37.522;2022-12-07T06:44:19;4.20;;;3.00;;
63284;SDS011;49409;55.708;37.522;2022-12-07T06:46:45;4.18;;;2.58;;
63284;SDS011;49409;55.708;37.522;2022-12-07T06:49:11;5.60;;;3.38;;
63284;SDS011;49409;55.708;37.522;2022-12-07T06:51:37;8.23;;;3.20;;
63284;SDS011;49409;55.708;37.522;2022-12-07T06:54:06;5.22;;;3.05;;
63284;SDS011;49409;55.708;37.522;2022-12-07T06:56:33;6.35;;;3.28;;
63284;SDS011;49409;55.708;37.522;2022-12-07T06:58:58;8.00;;;4.32;;
63284;SDS011;49409;55.708;37.522;2022-12-07T07:01:24;6.75;;;3.72;;
63284;SDS011;49409;55.708;37.522;2022-12-07T07:03:49;5.45;;;2.92;;
63284;SDS011;49409;55.708;37.522;2022-12-07T07:06:15;6.35;;;3.00;;
63284;SDS011;49409;55.708;37.522;2022-12-07T07:08:41;7.18;;;3.45;;
63284;SDS011;49409;55.708;37.522;2022-12-07T07:11:07;6.93;;;3.72;;
63284;SDS011;49409;55.708;37.522;2022-12-07T07:13:33;7.97;;;3.45;;
63284;SDS011;49409;55.708;37.522;2022-12-07T07:15:58;5.88;;;3.70;;
63284;SDS011;49409;55.708;37.522;2022-12-07T07:18:24;6.88;;;4.05;;
63284;SDS011;49409;55.708;37.522;2022-12-07T07:20:50;2.78;;;1.77;;
63284;SDS011;49409;55.708;37.522;2022-12-07T07:23:17;6.35;;;3.08;;
63284;SDS011;49409;55.708;37.522;2022-12-07T07:25:44;8.45;;;3.70;;
63284;SDS011;49409;55.708;37.522;2022-12-07T07:28:09;11.23;;;4.45;;
63284;SDS011;49409;55.708;37.522;2022-12-07T07:30:35;7.90;;;3.72;;
63284;SDS011;49409;55.708;37.522;2022-12-07T07:33:01;9.48;;;4.38;;
63284;SDS011;49409;55.708;37.522;2022-12-07T07:35:28;7.60;;;4.07;;
63284;SDS011;49409;55.708;37.522;2022-12-07T07:37:55;6.13;;;3.95;;
63284;SDS011;49409;55.708;37.522;2022-12-07T07:40:21;7.82;;;4.20;;
63284;SDS011;49409;55.708;37.522;2022-12-07T07:42:50;10.15;;;4.20;;
63284;SDS011;49409;55.708;37.522;2022-12-07T07:45:17;8.82;;;3.67;;
63284;SDS011;49409;55.708;37.522;2022-12-07T07:47:43;8.32;;;4.53;;
63284;SDS011;49409;55.708;37.522;2022-12-07T07:50:09;7.57;;;3.97;;
63284;SDS011;49409;55.708;37.522;2022-12-07T07:52:34;7.35;;;3.63;;
63284;SDS011;49409;55.708;37.522;2022-12-07T07:55:00;10.07;;;4.47;;
63284;SDS011;49409;55.708;37.522;2022-12-07T07:57:25;10.00;;;4.95;;
63284;SDS011;49409;55.708;37.522;2022-12-07T07:59:52;5.20;;;2.50;;
63284;SDS011;49409;55.708;37.522;2022-12-07T08:02:18;7.15;;;3.95;;
63284;SDS011;49409;55.708;37.522;2022-12-07T08:04:45;9.75;;;4.45;;
63284;SDS011;49409;55.708;37.522;2022-12-07T08:07:11;8.38;;;3.92;;
63284;SDS011;49409;55.708;37.522;2022-12-07T08:09:37;6.25;;;3.47;;
63284;SDS011;49409;55.708;37.522;2022-12-07T08:12:03;8.02;;;4.38;;
63284;SDS011;49409;55.708;37.522;2022-12-07T08:14:29;7.38;;;3.97;;
63284;SDS011;49409;55.708;37.522;2022-12-07T08:16:55;8.55;;;3.67;;
63284;SDS011;49409;55.708;37.522;2022-12-07T08:19:20;9.05;;;3.95;;
63284;SDS011;49409;55.708;37.522;2022-12-07T08:21:46;4.72;;;2.78;;
63284;SDS011;49409;55.708;37.522;2022-12-07T08:24:11;8.93;;;3.63;;
63284;SDS011;49409;55.708;37.522;2022-12-07T08:26:37;7.93;;;4.00;;
63284;SDS011;49409;55.708;37.522;2022-12-07T08:29:02;5.47;;;4.03;;
63284;SDS011;49409;55.708;37.522;2022-12-07T08:31:28;8.45;;;3.80;;
63284;SDS011;49409;55.708;37.522;2022-12-07T08:33:54;5.85;;;2.80;;
63284;SDS011;49409;55.708;37.522;2022-12-07T08:36:20;7.45;;;3.42;;
63284;SDS011;49409;55.708;37.522;2022-12-07T08:38:46;9.80;;;4.05;;
63284;SDS011;49409;55.708;37.522;2022-12-07T08:41:12;6.47;;;2.30;;
63284;SDS011;49409;55.708;37.522;2022-12-07T08:43:37;10.48;;;4.63;;
63284;SDS011;49409;55.708;37.522;2022-12-07T08:48:54;3.65;;;2.38;;
63284;SDS011;49409;55.708;37.522;2022-12-07T08:51:24;6.28;;;2.67;;
63284;SDS011;49409;55.708;37.522;2022-12-07T08:53:50;10.20;;;3.92;;
63284;SDS011;49409;55.708;37.522;2022-12-07T08:56:17;6.88;;;3.35;;
63284;SDS011;49409;55.708;37.522;2022-12-07T08:58:43;7.97;;;3.55;;
63284;SDS011;49409;55.708;37.522;2022-12-07T09:01:09;7.90;;;2.95;;
63284;SDS011;49409;55.708;37.522;2022-12-07T09:03:35;7.03;;;3.50;;
63284;SDS011;49409;55.708;37.522;2022-12-07T09:06:00;7.68;;;4.13;;
63284;SDS011;49409;55.708;37.522;2022-12-07T09:08:28;9.07;;;4.60;;
63284;SDS011;49409;55.708;37.522;2022-12-07T09:10:57;8.90;;;3.57;;
63284;SDS011;49409;55.708;37.522;2022-12-07T09:13:22;6.90;;;3.50;;
63284;SDS011;49409;55.708;37.522;2022-12-07T09:15:48;6.07;;;3.90;;
63284;SDS011;49409;55.708;37.522;2022-12-07T09:18:13;7.55;;;3.03;;
63284;SDS011;49409;55.708;37.522;2022-12-07T09:20:39;10.63;;;3.90;;
63284;SDS011;49409;55.708;37.522;2022-12-07T09:23:05;8.13;;;3.22;;
63284;SDS011;49409;55.708;37.522;2022-12-07T09:25:32;7.30;;;3.30;;
63284;SDS011;49409;55.708;37.522;2022-12-07T09:27:58;8.35;;;4.03;;
63284;SDS011;49409;55.708;37.522;2022-12-07T09:30:24;8.65;;;4.28;;
63284;SDS011;49409;55.708;37.522;2022-12-07T09:32:54;8.23;;;3.70;;
63284;SDS011;49409;55.708;37.522;2022-12-07T09:35:21;8.30;;;3.50;;
63284;SDS011;49409;55.708;37.522;2022-12-07T09:37:47;10.90;;;3.85;;
63284;SDS011;49409;55.708;37.522;2022-12-07T09:40:13;7.88;;;3.60;;
63284;SDS011;49409;55.708;37.522;2022-12-07T09:42:51;7.80;;;2.97;;
63284;SDS011;49409;55.708;37.522;2022-12-07T09:45:39;7.55;;;3.72;;
63284;SDS011;49409;55.708;37.522;2022-12-07T09:48:04;4.97;;;2.83;;
63284;SDS011;49409;55.708;37.522;2022-12-07T09:50:31;7.45;;;3.10;;
63284;SDS011;49409;55.708;37.522;2022-12-07T09:53:12;4.35;;;1.95;;
63284;SDS011;49409;55.708;37.522;2022-12-07T09:55:44;4.25;;;2.05;;
63284;SDS011;49409;55.708;37.522;2022-12-07T09:58:22;9.10;;;3.97;;
63284;SDS011;49409;55.708;37.522;2022-12-07T10:00:50;6.90;;;3.25;;
63284;SDS011;49409;55.708;37.522;2022-12-07T10:03:22;6.20;;;2.53;;
63284;SDS011;49409;55.708;37.522;2022-12-07T10:05:49;5.05;;;2.30;;
63284;SDS011;49409;55.708;37.522;2022-12-07T10:08:16;6.28;;;2.95;;
63284;SDS011;49409;55.708;37.522;2022-12-07T10:10:42;4.93;;;2.55;;
63284;SDS011;49409;55.708;37.522;2022-12-07T10:13:10;9.35;;;3.05;;
63284;SDS011;49409;55.708;37.522;2022-12-07T10:15:51;7.40;;;3.08;;
63284;SDS011;49409;55.708;37.522;2022-12-07T10:21:03;7.35;;;3.17;;
63284;SDS011;49409;55.708;37.522;2022-12-07T10:26:33;7.25;;;3.95;;
63284;SDS011;49409;55.708;37.522;2022-12-07T10:29:17;9.50;;;3.95;;
63284;SDS011;49409;55.708;37.522;2022-12-07T10:31:49;7.75;;;3.95;;
63284;SDS011;49409;55.708;37.522;2022-12-07T10:37:14;6.63;;;2.80;;
63284;SDS011;49409;55.708;37.522;2022-12-07T10:39:50;5.00;;;3.05;;
63284;SDS011;49409;55.708;37.522;2022-12-07T10:42:23;4.78;;;2.55;;
63284;SDS011;49409;55.708;37.522;2022-12-07T10:48:17;6.28;;;3.10;;
63284;SDS011;49409;55.708;37.522;2022-12-07T10:51:16;5.18;;;2.38;;
63284;SDS011;49409;55.708;37.522;2022-12-07T10:56:52;5.43;;;3.00;;
63284;SDS011;49409;55.708;37.522;2022-12-07T11:07:44;8.02;;;3.80;;
63284;SDS011;49409;55.708;37.522;2022-12-07T11:10:13;7.90;;;3.45;;
63284;SDS011;49409;55.708;37.522;2022-12-07T11:12:43;4.47;;;1.88;;
63284;SDS011;49409;55.708;37.522;2022-12-07T11:18:09;4.07;;;2.47;;
63284;SDS011;49409;55.708;37.522;2022-12-07T11:23:35;8.77;;;3.55;;
63284;SDS011;49409;55.708;37.522;2022-12-07T11:37:31;6.03;;;3.20;;
63284;SDS011;49409;55.708;37.522;2022-12-07T11:42:45;6.68;;;3.15;;
63284;SDS011;49409;55.708;37.522;2022-12-07T11:45:20;5.63;;;2.95;;
63284;SDS011;49409;55.708;37.522;2022-12-07T11:48:01;7.55;;;2.92;;
63284;SDS011;49409;55.708;37.522;2022-12-07T11:53:02;10.20;;;4.15;;
63284;SDS011;49409;55.708;37.522;2022-12-07T12:01:01;9.93;;;4.80;;
63284;SDS011;49409;55.708;37.522;2022-12-07T12:03:48;7.18;;;2.67;;
63284;SDS011;49409;55.708;37.522;2022-12-07T12:06:16;7.43;;;3.60;;
63284;SDS011;49409;55.708;37.522;2022-12-07T12:08:43;6.72;;;3.63;;
63284;SDS011;49409;55.708;37.522;2022-12-07T12:14:02;8.13;;;3.83;;
63284;SDS011;49409;55.708;37.522;2022-12-07T12:19:35;7.60;;;3.70;;
63284;SDS011;49409;55.708;37.522;2022-12-07T12:22:16;5.05;;;3.28;;
63284;SDS011;49409;55.708;37.522;2022-12-07T12:24:45;8.05;;;4.65;;
63284;SDS011;49409;55.708;37.522;2022-12-07T12:27:23;9.20;;;4.30;;
63284;SDS011;49409;55.708;37.522;2022-12-07T12:29:52;9.95;;;5.35;;
63284;SDS011;49409;55.708;37.522;2022-12-07T12:32:21;6.95;;;3.75;;
63284;SDS011;49409;55.708;37.522;2022-12-07T12:42:49;12.73;;;6.03;;
63284;SDS011;49409;55.708;37.522;2022-12-07T12:45:20;9.00;;;5.20;;
63284;SDS011;49409;55.708;37.522;2022-12-07T12:53:01;9.55;;;4.63;;
63284;SDS011;49409;55.708;37.522;2022-12-07T13:00:49;6.90;;;3.95;;
63284;SDS011;49409;55.708;37.522;2022-12-07T13:03:52;9.45;;;4.22;;
63284;SDS011;49409;55.708;37.522;2022-12-07T13:06:29;9.88;;;4.22;;
63284;SDS011;49409;55.708;37.522;2022-12-07T13:09:00;10.00;;;3.97;;
63284;SDS011;49409;55.708;37.522;2022-12-07T13:11:33;8.70;;;3.78;;
63284;SDS011;49409;55.708;37.522;2022-12-07T13:19:57;9.00;;;4.13;;
63284;SDS011;49409;55.708;37.522;2022-12-07T13:27:48;9.10;;;4.45;;
63284;SDS011;49409;55.708;37.522;2022-12-07T13:30:21;10.63;;;4.00;;
63284;SDS011;49409;55.708;37.522;2022-12-07T13:32:51;4.65;;;2.33;;
63284;SDS011;49409;55.708;37.522;2022-12-07T13:37:54;8.90;;;4.35;;
63284;SDS011;49409;55.708;37.522;2022-12-07T13:40:20;12.73;;;6.00;;
63284;SDS011;49409;55.708;37.522;2022-12-07T13:42:47;6.50;;;2.92;;
63284;SDS011;49409;55.708;37.522;2022-12-07T13:45:22;10.30;;;5.25;;
63284;SDS011;49409;55.708;37.522;2022-12-07T13:51:18;10.80;;;4.75;;
63284;SDS011;49409;55.708;37.522;2022-12-07T13:53:59;9.98;;;5.53;;
63284;SDS011;49409;55.708;37.522;2022-12-07T13:56:33;6.05;;;3.83;;
63284;SDS011;49409;55.708;37.522;2022-12-07T13:59:00;6.72;;;4.35;;
63284;SDS011;49409;55.708;37.522;2022-12-07T14:01:26;10.35;;;5.10;;
63284;SDS011;49409;55.708;37.522;2022-12-07T14:03:53;9.85;;;4.85;;
63284;SDS011;49409;55.708;37.522;2022-12-07T14:06:27;7.50;;;4.15;;
63284;SDS011;49409;55.708;37.522;2022-12-07T14:11:56;11.45;;;5.03;;
63284;SDS011;49409;55.708;37.522;2022-12-07T14:14:23;9.35;;;4.07;;
63284;SDS011;49409;55.708;37.522;2022-12-07T14:16:58;6.43;;;3.80;;
63284;SDS011;49409;55.708;37.522;2022-12-07T14:19:50;8.05;;;3.72;;
63284;SDS011;49409;55.708;37.522;2022-12-07T14:22:38;6.95;;;4.13;;
63284;SDS011;49409;55.708;37.522;2022-12-07T14:25:16;9.27;;;3.85;;
63284;SDS011;49409;55.708;37.522;2022-12-07T14:27:48;7.25;;;4.20;;
63284;SDS011;49409;55.708;37.522;2022-12-07T14:30:21;8.52;;;4.32;;
63284;SDS011;49409;55.708;37.522;2022-12-07T14:32:50;9.88;;;4.55;;
63284;SDS011;49409;55.708;37.522;2022-12-07T14:35:18;11.60;;;5.15;;
63284;SDS011;49409;55.708;37.522;2022-12-07T14:37:45;8.63;;;3.83;;
63284;SDS011;49409;55.708;37.522;2022-12-07T14:40:19;10.52;;;4.55;;
63284;SDS011;49409;55.708;37.522;2022-12-07T14:42:47;7.05;;;3.10;;
63284;SDS011;49409;55.708;37.522;2022-12-07T14:45:17;6.10;;;3.95;;
63284;SDS011;49409;55.708;37.522;2022-12-07T14:47:45;8.77;;;3.95;;
63284;SDS011;49409;55.708;37.522;2022-12-07T14:50:15;7.93;;;3.95;;
63284;SDS011;49409;55.708;37.522;2022-12-07T14:52:43;6.78;;;3.58;;
63284;SDS011;49409;55.708;37.522;2022-12-07T14:55:24;8.13;;;4.05;;
63284;SDS011;49409;55.708;37.522;2022-12-07T14:57:52;6.93;;;3.38;;
63284;SDS011;49409;55.708;37.522;2022-12-07T15:00:18;8.30;;;3.88;;
63284;SDS011;49409;55.708;37.522;2022-12-07T15:02:45;8.82;;;4.50;;
63284;SDS011;49409;55.708;37.522;2022-12-07T15:05:12;9.45;;;4.40;;
63284;SDS011;49409;55.708;37.522;2022-12-07T15:07:38;10.00;;;5.25;;
63284;SDS011;49409;55.708;37.522;2022-12-07T15:10:08;8.38;;;4.45;;
63284;SDS011;49409;55.708;37.522;2022-12-07T15:12:40;8.18;;;3.63;;
63284;SDS011;49409;55.708;37.522;2022-12-07T15:15:06;7.57;;;3.92;;
63284;SDS011;49409;55.708;37.522;2022-12-07T15:17:32;11.48;;;5.20;;
63284;SDS011;49409;55.708;37.522;2022-12-07T15:19:57;10.25;;;4.40;;
63284;SDS011;49409;55.708;37.522;2022-12-07T15:22:23;9.20;;;3.63;;
63284;SDS011;49409;55.708;37.522;2022-12-07T15:24:48;9.73;;;4.53;;
63284;SDS011;49409;55.708;37.522;2022-12-07T15:27:14;8.88;;;4.22;;
63284;SDS011;49409;55.708;37.522;2022-12-07T15:29:39;6.82;;;4.25;;
63284;SDS011;49409;55.708;37.522;2022-12-07T15:32:05;8.00;;;3.65;;
63284;SDS011;49409;55.708;37.522;2022-12-07T15:34:30;12.27;;;4.60;;
63284;SDS011;49409;55.708;37.522;2022-12-07T15:36:57;7.68;;;3.40;;
63284;SDS011;49409;55.708;37.522;2022-12-07T15:39:22;10.45;;;5.47;;
63284;SDS011;49409;55.708;37.522;2022-12-07T15:41:48;8.90;;;4.15;;
63284;SDS011;49409;55.708;37.522;2022-12-07T15:44:14;10.77;;;4.65;;
63284;SDS011;49409;55.708;37.522;2022-12-07T15:46:58;9.10;;;4.45;;
63284;SDS011;49409;55.708;37.522;2022-12-07T15:49:24;9.98;;;4.90;;
63284;SDS011;49409;55.708;37.522;2022-12-07T15:51:50;7.60;;;4.03;;
63284;SDS011;49409;55.708;37.522;2022-12-07T15:54:18;9.30;;;4.63;;
63284;SDS011;49409;55.708;37.522;2022-12-07T15:56:45;6.97;;;3.35;;
63284;SDS011;49409;55.708;37.522;2022-12-07T15:59:11;9.90;;;5.20;;
63284;SDS011;49409;55.708;37.522;2022-12-07T16:01:37;8.63;;;3.90;;
63284;SDS011;49409;55.708;37.522;2022-12-07T16:04:03;7.80;;;3.67;;
63284;SDS011;49409;55.708;37.522;2022-12-07T16:06:28;10.00;;;4.68;;
63284;SDS011;49409;55.708;37.522;2022-12-07T16:08:54;7.63;;;4.00;;
63284;SDS011;49409;55.708;37.522;2022-12-07T16:11:19;6.95;;;3.83;;
63284;SDS011;49409;55.708;37.522;2022-12-07T16:13:45;6.63;;;3.47;;
63284;SDS011;49409;55.708;37.522;2022-12-07T16:16:12;7.80;;;3.83;;
63284;SDS011;49409;55.708;37.522;2022-12-07T16:18:39;9.85;;;4.55;;
63284;SDS011;49409;55.708;37.522;2022-12-07T16:21:05;5.82;;;3.95;;
63284;SDS011;49409;55.708;37.522;2022-12-07T16:23:31;4.95;;;2.85;;
63284;SDS011;49409;55.708;37.522;2022-12-07T16:26:06;4.07;;;1.88;;
63284;SDS011;49409;55.708;37.522;2022-12-07T16:28:39;4.80;;;2.53;;
63284;SDS011;49409;55.708;37.522;2022-12-07T16:31:06;6.85;;;4.43;;
63284;SDS011;49409;55.708;37.522;2022-12-07T16:33:37;7.35;;;3.42;;
63284;SDS011;49409;55.708;37.522;2022-12-07T16:36:04;6.68;;;3.72;;
63284;SDS011;49409;55.708;37.522;2022-12-07T16:38:32;9.52;;;5.53;;
63284;SDS011;49409;55.708;37.522;2022-12-07T16:40:58;11.18;;;4.38;;
63284;SDS011;49409;55.708;37.522;2022-12-07T16:43:23;7.78;;;4.53;;
63284;SDS011;49409;55.708;37.522;2022-12-07T16:45:49;7.05;;;3.10;;
63284;SDS011;49409;55.708;37.522;2022-12-07T16:48:15;8.60;;;4.68;;